Time;durP1;ratioP1;P1;durP2;ratioP2;P2;SDS_P1;SDS_P2;PMS_P1;PMS_P2;Temp;Humidity;BMP_temperature;BMP_pressure;BME280_temperature;BME280_humidity;BME280_pressure;Samples;Min_cycle;Max_cycle;Signal;HPM_P1;HPM_P2
2021/09/28 00:00:52;;;;;;;23.50;12.90;;;16.90;99.90;;;;;;4116592;28;20669;-92
2021/09/28 00:02:54;;;;;;;16.93;12.20;;;16.90;99.90;;;;;;4117202;28;20248;-90
2021/09/28 00:04:56;;;;;;;20.03;12.87;;;16.70;99.90;;;;;;4116815;28;20248;-93
2021/09/28 00:06:57;;;;;;;18.40;11.87;;;16.70;99.90;;;;;;4117233;28;20216;-90
2021/09/28 00:08:59;;;;;;;19.37;11.90;;;16.70;99.90;;;;;;4116790;28;20223;-90
2021/09/28 00:11:01;;;;;;;16.70;11.30;;;16.70;99.90;;;;;;4117249;28;20206;-90
2021/09/28 00:13:05;;;;;;;17.93;11.43;;;16.70;99.90;;;;;;4116998;28;20205;-90
2021/09/28 00:15:11;;;;;;;17.47;11.43;;;16.70;99.90;;;;;;4116001;28;20233;-91
2021/09/28 00:17:13;;;;;;;16.83;11.23;;;16.70;99.90;;;;;;4117519;28;20185;-90
2021/09/28 00:19:16;;;;;;;16.73;11.27;;;16.70;99.90;;;;;;4117005;28;20299;-90
2021/09/28 00:21:19;;;;;;;18.00;11.30;;;16.70;99.90;;;;;;4115690;28;20217;-90
2021/09/28 00:23:21;;;;;;;19.90;12.37;;;16.60;99.90;;;;;;4116262;28;20669;-90
2021/09/28 00:25:23;;;;;;;17.70;11.43;;;16.60;99.90;;;;;;4116716;28;20276;-90
2021/09/28 00:27:25;;;;;;;17.57;11.73;;;16.80;99.90;;;;;;4116928;28;20300;-90
2021/09/28 00:29:27;;;;;;;17.13;11.50;;;16.50;99.90;;;;;;4116717;28;20680;-91
2021/09/28 00:31:31;;;;;;;17.00;11.40;;;16.50;99.90;;;;;;4104686;28;20210;-90
2021/09/28 00:33:32;;;;;;;17.47;11.17;;;16.50;99.90;;;;;;4100268;29;20280;-90
2021/09/28 00:35:34;;;;;;;15.93;11.37;;;16.50;99.90;;;;;;4126031;23;20232;-83
2021/09/28 00:37:36;;;;;;;20.67;11.83;;;16.50;99.90;;;;;;4132720;28;20216;-84
2021/09/28 00:39:38;;;;;;;15.57;10.90;;;16.50;99.90;;;;;;4127184;28;20222;-84
2021/09/28 00:41:40;;;;;;;18.13;11.87;;;16.50;99.90;;;;;;4117466;28;20221;-84
2021/09/28 00:43:47;;;;;;;18.87;11.90;;;16.50;99.90;;;;;;4116988;28;20639;-84
2021/09/28 00:45:49;;;;;;;18.33;11.63;;;16.50;99.90;;;;;;4117123;28;20244;-84
2021/09/28 00:47:53;;;;;;;18.47;11.80;;;16.50;99.90;;;;;;4117830;28;20268;-84
2021/09/28 00:49:55;;;;;;;17.47;11.60;;;16.50;99.90;;;;;;4121817;28;20291;-84
2021/09/28 00:51:57;;;;;;;18.20;11.33;;;16.50;99.90;;;;;;4134465;28;20220;-84
2021/09/28 00:54:00;;;;;;;17.37;11.50;;;16.50;99.90;;;;;;4133437;28;20247;-84
2021/09/28 00:56:02;;;;;;;21.37;12.53;;;16.50;99.90;;;;;;4138201;28;20228;-84
2021/09/28 00:58:08;;;;;;;17.30;11.80;;;16.50;99.90;;;;;;4137576;28;20213;-84
2021/09/28 01:00:11;;;;;;;18.60;11.73;;;16.50;99.90;;;;;;4141852;28;20235;-84
2021/09/28 01:02:14;;;;;;;18.40;11.43;;;16.50;99.90;;;;;;4136304;28;20211;-84
2021/09/28 01:04:17;;;;;;;18.20;11.37;;;16.50;99.90;;;;;;4133642;28;20204;-85
2021/09/28 01:06:19;;;;;;;18.33;11.97;;;16.50;99.90;;;;;;4125474;28;20295;-84
2021/09/28 01:08:20;;;;;;;20.87;12.03;;;16.50;99.90;;;;;;4116212;28;20248;-84
2021/09/28 01:10:22;;;;;;;18.53;12.70;;;16.40;99.90;;;;;;4123820;28;20208;-84
2021/09/28 01:12:24;;;;;;;20.73;12.60;;;16.40;99.90;;;;;;4130770;28;20212;-84
2021/09/28 01:14:26;;;;;;;18.23;11.87;;;16.40;99.90;;;;;;4115564;28;20216;-84
2021/09/28 01:16:28;;;;;;;19.30;12.90;;;16.40;99.90;;;;;;4115600;28;20233;-84
2021/09/28 01:18:32;;;;;;;17.37;11.73;;;16.50;99.90;;;;;;4116935;28;20216;-84
2021/09/28 01:20:37;;;;;;;19.80;11.37;;;16.50;99.90;;;;;;4116995;28;20538;-84
2021/09/28 01:22:39;;;;;;;17.90;11.10;;;16.30;99.90;;;;;;4120000;28;20220;-84
2021/09/28 01:24:42;;;;;;;20.03;11.77;;;16.40;99.90;;;;;;4124938;28;20212;-84
2021/09/28 01:26:44;;;;;;;17.03;10.83;;;16.40;99.90;;;;;;4116592;28;20237;-84
2021/09/28 01:28:46;;;;;;;16.37;11.17;;;16.40;99.90;;;;;;4115648;28;20225;-84
2021/09/28 01:30:48;;;;;;;17.40;10.87;;;16.40;99.90;;;;;;4118935;28;20216;-84
2021/09/28 01:32:49;;;;;;;20.90;12.17;;;16.40;99.90;;;;;;4132684;28;20225;-83
2021/09/28 01:34:51;;;;;;;20.87;12.03;;;16.40;99.90;;;;;;4132346;28;20209;-84
2021/09/28 01:36:54;;;;;;;17.97;11.47;;;16.40;99.90;;;;;;4132547;28;20285;-84
2021/09/28 01:38:56;;;;;;;18.73;11.53;;;16.30;99.90;;;;;;4133694;28;20282;-84
2021/09/28 01:40:58;;;;;;;18.67;11.23;;;16.50;99.90;;;;;;4123152;28;20657;-84
2021/09/28 01:43:06;;;;;;;16.33;11.57;;;16.30;99.90;;;;;;4117536;28;20268;-84
2021/09/28 01:45:08;;;;;;;17.43;11.03;;;16.30;99.90;;;;;;4126106;28;20281;-84
2021/09/28 01:47:10;;;;;;;16.00;10.03;;;16.30;99.90;;;;;;4135234;28;20303;-84
2021/09/28 01:49:14;;;;;;;11.10;8.00;;;16.20;99.90;;;;;;4131191;28;20240;-84
2021/09/28 01:51:15;;;;;;;10.50;6.63;;;16.20;99.90;;;;;;4125503;28;20213;-84
2021/09/28 01:53:23;;;;;;;10.03;6.10;;;16.10;99.90;;;;;;4127948;28;20584;-84
2021/09/28 01:55:25;;;;;;;7.53;4.73;;;16.10;99.90;;;;;;4132513;28;20239;-84
2021/09/28 01:57:27;;;;;;;4.00;2.83;;;16.00;99.90;;;;;;4126010;28;20220;-84
2021/09/28 01:59:28;;;;;;;3.57;2.20;;;15.90;99.90;;;;;;4122076;28;20220;-84
2021/09/28 02:01:36;;;;;;;3.97;2.30;;;15.80;99.90;;;;;;4139533;28;20220;-84
2021/09/28 02:03:38;;;;;;;4.33;1.67;;;15.80;99.90;;;;;;4141883;28;20211;-84
2021/09/28 02:05:40;;;;;;;2.37;1.33;;;15.80;99.90;;;;;;4141431;28;20236;-84
2021/09/28 02:07:42;;;;;;;3.60;1.70;;;16.00;99.90;;;;;;4123230;28;20282;-84
2021/09/28 02:09:45;;;;;;;1.73;0.90;;;15.60;99.90;;;;;;4114997;28;20683;-84
2021/09/28 02:11:47;;;;;;;2.13;0.90;;;15.50;99.90;;;;;;4115582;28;20278;-84
2021/09/28 02:13:50;;;;;;;1.83;1.00;;;15.50;99.90;;;;;;4129555;28;20281;-84
2021/09/28 02:15:52;;;;;;;4.37;1.10;;;15.40;99.90;;;;;;4125209;28;20239;-84
2021/09/28 02:17:54;;;;;;;2.40;0.80;;;15.30;99.90;;;;;;4119100;28;20292;-84
2021/09/28 02:19:56;;;;;;;2.17;0.97;;;15.40;99.90;;;;;;4132019;28;20211;-84
2021/09/28 02:21:57;;;;;;;2.93;0.80;;;15.30;99.90;;;;;;4131322;28;20211;-84
2021/09/28 02:23:59;;;;;;;1.70;0.80;;;15.30;99.90;;;;;;4130857;28;20230;-84
2021/09/28 02:26:02;;;;;;;2.00;0.87;;;15.20;99.90;;;;;;4129365;28;20242;-84
2021/09/28 02:28:05;;;;;;;2.77;0.83;;;15.30;99.90;;;;;;4132062;28;20224;-84
2021/09/28 02:30:08;;;;;;;3.57;0.70;;;15.20;99.90;;;;;;4131201;28;20214;-84
2021/09/28 02:32:09;;;;;;;2.90;0.90;;;15.20;99.90;;;;;;4132894;28;20230;-84
2021/09/28 02:34:11;;;;;;;3.20;1.17;;;15.20;99.90;;;;;;4133837;28;20218;-84
2021/09/28 02:36:13;;;;;;;1.63;0.80;;;15.20;99.90;;;;;;4137151;28;20244;-84
2021/09/28 02:38:15;;;;;;;3.53;0.93;;;15.10;99.90;;;;;;4135752;28;20269;-84
2021/09/28 02:40:16;;;;;;;3.97;1.00;;;15.10;99.90;;;;;;4125382;28;20263;-85
2021/09/28 02:42:20;;;;;;;1.67;0.90;;;15.10;99.90;;;;;;4120939;28;20677;-84
2021/09/28 02:44:21;;;;;;;2.87;1.00;;;15.10;99.90;;;;;;4116316;28;20224;-85
2021/09/28 02:46:23;;;;;;;0.87;0.80;;;15.10;99.90;;;;;;4115771;28;20243;-84
2021/09/28 02:48:25;;;;;;;1.97;0.80;;;15.10;99.90;;;;;;4115434;28;20258;-84
2021/09/28 02:50:27;;;;;;;2.13;1.10;;;15.10;99.90;;;;;;4115554;28;20219;-85
2021/09/28 02:52:28;;;;;;;3.20;1.00;;;15.00;99.90;;;;;;4115427;28;20213;-84
2021/09/28 02:54:30;;;;;;;3.50;1.30;;;15.00;99.90;;;;;;4130760;28;20217;-84
2021/09/28 02:56:32;;;;;;;1.93;1.10;;;15.00;99.90;;;;;;4130869;28;20230;-84
2021/09/28 02:58:35;;;;;;;2.57;1.20;;;14.90;99.90;;;;;;4119495;28;20303;-85
2021/09/28 03:00:37;;;;;;;3.73;1.40;;;14.90;99.90;;;;;;4123591;28;20748;-84
2021/09/28 03:02:38;;;;;;;3.00;1.10;;;14.90;99.90;;;;;;4131800;28;20215;-85
2021/09/28 03:04:40;;;;;;;8.33;1.37;;;14.90;99.90;;;;;;4131113;28;20740;-84
2021/09/28 03:06:42;;;;;;;4.00;1.43;;;14.90;99.90;;;;;;4118253;28;20299;-84
2021/09/28 03:08:44;;;;;;;4.07;1.60;;;14.90;99.90;;;;;;4115353;28;20218;-84
2021/09/28 03:10:45;;;;;;;2.93;1.50;;;14.90;99.90;;;;;;4115083;28;20270;-84
2021/09/28 03:12:47;;;;;;;2.73;1.37;;;14.90;99.90;;;;;;4124772;28;20218;-84
2021/09/28 03:14:50;;;;;;;3.37;1.30;;;14.90;99.90;;;;;;4131475;28;20234;-84
2021/09/28 03:16:52;;;;;;;2.80;1.30;;;14.90;99.90;;;;;;4115302;28;20218;-84
2021/09/28 03:18:54;;;;;;;2.60;1.50;;;14.90;99.90;;;;;;4114837;28;20226;-85
2021/09/28 03:20:56;;;;;;;3.37;1.60;;;14.80;99.90;;;;;;4115366;28;20621;-84
2021/09/28 03:22:58;;;;;;;4.60;1.70;;;14.80;99.90;;;;;;4118118;28;20558;-84
2021/09/28 03:24:59;;;;;;;3.37;1.70;;;14.90;99.90;;;;;;4128218;28;20237;-84
2021/09/28 03:27:01;;;;;;;5.80;2.23;;;14.80;99.90;;;;;;4118392;28;20855;-84
2021/09/28 03:29:03;;;;;;;5.70;2.00;;;14.80;99.90;;;;;;4117883;28;20213;-84
2021/09/28 03:31:06;;;;;;;8.30;1.90;;;14.80;99.90;;;;;;4125877;28;20637;-84
2021/09/28 03:33:08;;;;;;;4.30;1.43;;;14.70;99.90;;;;;;4124854;28;20210;-84
2021/09/28 03:35:11;;;;;;;4.93;1.73;;;14.70;99.90;;;;;;4126532;28;20232;-84
2021/09/28 03:37:12;;;;;;;3.77;1.90;;;14.60;99.90;;;;;;4125882;28;20221;-84
2021/09/28 03:39:14;;;;;;;4.23;1.90;;;14.70;99.90;;;;;;4134219;28;20209;-84
2021/09/28 03:41:16;;;;;;;5.07;2.20;;;14.60;99.90;;;;;;4121700;28;20214;-84
2021/09/28 03:43:18;;;;;;;8.73;3.10;;;14.60;99.90;;;;;;4117982;28;20217;-84
2021/09/28 03:45:20;;;;;;;6.00;2.83;;;14.60;99.90;;;;;;4116824;28;20230;-84
2021/09/28 03:47:23;;;;;;;5.50;2.57;;;14.60;99.90;;;;;;4118232;28;20242;-84
2021/09/28 03:49:24;;;;;;;4.23;3.03;;;14.60;99.90;;;;;;4117858;28;20222;-84
2021/09/28 03:51:26;;;;;;;5.33;2.83;;;14.60;99.90;;;;;;4127587;28;20216;-84
2021/09/28 03:53:28;;;;;;;8.50;3.50;;;14.60;99.90;;;;;;4127570;28;20219;-84
2021/09/28 03:55:30;;;;;;;6.03;3.57;;;14.60;99.90;;;;;;4132957;28;20733;-84
2021/09/28 03:57:31;;;;;;;5.77;3.60;;;14.60;99.90;;;;;;4132153;28;20205;-84
2021/09/28 03:59:33;;;;;;;6.20;3.50;;;14.60;99.90;;;;;;4125894;28;20269;-84
2021/09/28 04:01:35;;;;;;;5.30;3.20;;;14.60;99.90;;;;;;4118646;28;20750;-84
2021/09/28 04:03:41;;;;;;;6.67;3.97;;;14.60;99.90;;;;;;4134022;28;20214;-84
2021/09/28 04:05:42;;;;;;;5.13;2.97;;;14.60;99.90;;;;;;4130212;28;20695;-84
2021/09/28 04:07:44;;;;;;;4.97;3.17;;;14.60;99.90;;;;;;4129843;28;20210;-83
2021/09/28 04:09:46;;;;;;;7.97;3.40;;;14.60;99.90;;;;;;4115912;28;20217;-83
2021/09/28 04:11:48;;;;;;;7.57;3.60;;;14.60;99.90;;;;;;4116527;28;20216;-84
2021/09/28 04:13:50;;;;;;;6.47;3.53;;;14.50;99.90;;;;;;4130613;28;20218;-84
2021/09/28 04:15:52;;;;;;;7.70;3.97;;;14.50;99.90;;;;;;4133707;28;20639;-84
2021/09/28 04:17:54;;;;;;;10.27;4.70;;;14.50;99.90;;;;;;4128307;28;20230;-84
2021/09/28 04:19:57;;;;;;;5.93;4.33;;;14.50;99.90;;;;;;4120754;28;20218;-84
2021/09/28 04:21:59;;;;;;;8.17;4.67;;;14.40;99.90;;;;;;4123229;28;20211;-84
2021/09/28 04:24:01;;;;;;;10.70;4.57;;;14.40;99.90;;;;;;4123991;28;20227;-84
2021/09/28 04:26:03;;;;;;;8.40;4.50;;;14.40;99.90;;;;;;4124764;28;20231;-85
2021/09/28 04:28:06;;;;;;;8.00;4.20;;;14.40;99.90;;;;;;4124671;28;20208;-84
2021/09/28 04:30:08;;;;;;;9.67;4.23;;;14.40;99.90;;;;;;4134941;28;20213;-84
2021/09/28 04:32:11;;;;;;;7.77;4.10;;;14.30;99.90;;;;;;4127290;28;20219;-84
2021/09/28 04:34:12;;;;;;;6.00;3.50;;;14.30;99.90;;;;;;4136425;28;20209;-83
2021/09/28 04:36:16;;;;;;;10.83;3.73;;;14.30;99.90;;;;;;4128871;28;20269;-84
2021/09/28 04:38:17;;;;;;;5.40;3.40;;;14.30;99.90;;;;;;4131357;28;20213;-84
2021/09/28 04:40:19;;;;;;;7.33;3.10;;;14.30;99.90;;;;;;4121793;28;20210;-84
2021/09/28 04:42:21;;;;;;;5.60;2.93;;;14.20;99.90;;;;;;4123095;28;20243;-84
2021/09/28 04:44:23;;;;;;;7.93;2.77;;;14.20;99.90;;;;;;4133286;28;20287;-84
2021/09/28 04:46:25;;;;;;;6.97;2.87;;;14.20;99.90;;;;;;4132293;28;20240;-84
2021/09/28 04:48:27;;;;;;;4.77;2.67;;;14.20;99.90;;;;;;4119054;28;20225;-84
2021/09/28 04:50:29;;;;;;;5.90;3.00;;;14.10;99.90;;;;;;4116824;28;20213;-84
2021/09/28 04:52:32;;;;;;;4.83;2.53;;;14.20;99.90;;;;;;4115784;28;20226;-84
2021/09/28 04:54:34;;;;;;;4.67;2.43;;;14.20;99.90;;;;;;4122393;28;20294;-84
2021/09/28 04:56:36;;;;;;;5.93;2.73;;;14.10;99.90;;;;;;4129117;28;20237;-84
2021/09/28 04:58:38;;;;;;;5.67;2.27;;;14.10;99.90;;;;;;4134019;28;20294;-84
2021/09/28 05:00:41;;;;;;;5.53;2.23;;;14.10;99.90;;;;;;4140159;28;20690;-84
2021/09/28 05:02:44;;;;;;;5.60;2.17;;;14.10;99.90;;;;;;4150595;28;20570;-84
2021/09/28 05:04:45;;;;;;;3.60;2.23;;;14.10;99.90;;;;;;4146387;28;20223;-84
2021/09/28 05:06:47;;;;;;;6.03;2.23;;;14.10;99.90;;;;;;4121781;28;20287;-85
2021/09/28 05:08:51;;;;;;;4.23;2.37;;;14.00;99.90;;;;;;4119900;28;20584;-84
2021/09/28 05:10:53;;;;;;;5.90;2.40;;;14.00;99.90;;;;;;4132000;28;20270;-85
2021/09/28 05:12:55;;;;;;;4.97;2.50;;;14.00;99.90;;;;;;4130513;28;20338;-84
2021/09/28 05:14:57;;;;;;;4.23;2.57;;;13.90;99.90;;;;;;4119222;28;20267;-84
2021/09/28 05:16:59;;;;;;;6.30;2.87;;;13.90;99.90;;;;;;4128145;28;20676;-84
2021/09/28 05:19:01;;;;;;;4.43;2.57;;;13.80;99.90;;;;;;4130757;28;20263;-84
2021/09/28 05:21:03;;;;;;;5.77;3.20;;;13.80;99.90;;;;;;4131785;28;20223;-84
2021/09/28 05:23:05;;;;;;;7.90;2.70;;;13.80;99.90;;;;;;4130809;28;20651;-84
2021/09/28 05:25:09;;;;;;;5.60;2.50;;;13.80;99.90;;;;;;4127111;28;20237;-84
2021/09/28 05:27:14;;;;;;;3.53;2.50;;;13.80;99.90;;;;;;4127951;28;20232;-84
2021/09/28 05:29:16;;;;;;;6.97;2.83;;;13.80;99.90;;;;;;4132003;28;20219;-84
2021/09/28 05:31:18;;;;;;;7.33;2.77;;;13.90;99.90;;;;;;4120105;28;20259;-84
2021/09/28 05:33:20;;;;;;;5.17;2.80;;;13.80;99.90;;;;;;4134746;28;20267;-84
2021/09/28 05:35:22;;;;;;;4.07;2.70;;;13.80;99.90;;;;;;4131628;28;20239;-84
2021/09/28 05:37:24;;;;;;;7.50;3.10;;;13.80;99.90;;;;;;4132452;28;20255;-84
2021/09/28 05:39:26;;;;;;;5.90;3.43;;;13.80;99.90;;;;;;4125566;28;20212;-84
2021/09/28 05:41:29;;;;;;;6.20;3.17;;;13.70;99.90;;;;;;4116469;28;20221;-84
2021/09/28 05:43:31;;;;;;;6.50;3.50;;;13.80;99.90;;;;;;4115998;28;20303;-84
2021/09/28 05:45:32;;;;;;;7.40;3.63;;;13.70;99.90;;;;;;4131091;28;20228;-84
2021/09/28 05:47:34;;;;;;;6.90;3.93;;;13.70;99.90;;;;;;4133314;28;20292;-84
2021/09/28 05:49:37;;;;;;;8.47;3.43;;;13.60;99.90;;;;;;4122177;28;20237;-84
2021/09/28 05:51:38;;;;;;;5.90;3.40;;;13.70;99.90;;;;;;4117777;28;20279;-84
2021/09/28 05:53:40;;;;;;;6.93;3.53;;;13.70;99.90;;;;;;4128552;28;20213;-84
2021/09/28 05:55:42;;;;;;;5.13;3.50;;;13.70;99.90;;;;;;4132687;28;20232;-84
2021/09/28 05:57:45;;;;;;;5.77;3.50;;;13.60;99.90;;;;;;4130906;28;20209;-84
2021/09/28 05:59:48;;;;;;;6.60;3.83;;;13.70;99.90;;;;;;4121951;28;20209;-84
2021/09/28 06:01:50;;;;;;;6.30;4.17;;;13.70;99.90;;;;;;4131695;28;20213;-84
2021/09/28 06:03:52;;;;;;;9.50;4.03;;;13.70;99.90;;;;;;4131410;28;20224;-84
2021/09/28 06:05:54;;;;;;;6.83;4.20;;;13.70;99.90;;;;;;4130182;28;20232;-84
2021/09/28 06:07:56;;;;;;;7.87;4.33;;;13.70;99.90;;;;;;4122789;28;20488;-84
2021/09/28 06:09:57;;;;;;;9.20;5.07;;;13.70;99.90;;;;;;4124099;28;20251;-85
2021/09/28 06:11:59;;;;;;;8.33;5.07;;;13.70;99.90;;;;;;4131998;28;20696;-84
2021/09/28 06:14:02;;;;;;;8.47;5.33;;;13.70;99.90;;;;;;4129117;28;20220;-84
2021/09/28 06:16:05;;;;;;;9.30;5.77;;;13.70;99.90;;;;;;4116610;28;20229;-84
2021/09/28 06:18:07;;;;;;;10.17;5.80;;;13.70;99.90;;;;;;4116224;28;20573;-84
2021/09/28 06:20:09;;;;;;;8.17;5.67;;;13.70;99.90;;;;;;4114376;28;20653;-84
2021/09/28 06:22:11;;;;;;;10.20;6.37;;;13.70;99.90;;;;;;4131586;28;20216;-84
2021/09/28 06:24:13;;;;;;;8.40;5.93;;;13.70;99.90;;;;;;4129016;28;20212;-85
2021/09/28 06:26:15;;;;;;;8.80;6.40;;;13.80;99.90;;;;;;4130562;28;20243;-84
2021/09/28 06:28:18;;;;;;;8.23;5.90;;;13.70;99.90;;;;;;4133464;28;20243;-84
2021/09/28 06:30:21;;;;;;;8.13;5.83;;;13.80;99.90;;;;;;4137954;28;20221;-84
2021/09/28 06:32:24;;;;;;;9.93;6.20;;;13.80;99.90;;;;;;4123312;28;20283;-84
2021/09/28 06:34:26;;;;;;;11.20;6.73;;;13.80;99.90;;;;;;4131353;28;20282;-84
2021/09/28 06:36:28;;;;;;;10.63;6.37;;;13.90;99.90;;;;;;4179160;23;20236;-90
2021/09/28 06:38:30;;;;;;;10.10;6.23;;;13.80;99.90;;;;;;4110447;28;20634;-90
2021/09/28 06:40:32;;;;;;;10.57;5.93;;;13.80;99.90;;;;;;4114466;28;20670;-90
2021/09/28 06:42:33;;;;;;;8.30;5.47;;;13.90;99.90;;;;;;4114851;28;20209;-90
2021/09/28 06:44:35;;;;;;;8.80;6.23;;;13.80;99.90;;;;;;4114255;28;20615;-90
2021/09/28 06:46:38;;;;;;;11.50;6.57;;;13.90;99.90;;;;;;4114386;28;20228;-90
2021/09/28 06:48:40;;;;;;;8.83;5.53;;;13.80;99.90;;;;;;4115512;28;20224;-89
2021/09/28 06:50:42;;;;;;;8.60;5.70;;;13.80;99.90;;;;;;4113567;28;20221;-91
2021/09/28 06:52:44;;;;;;;10.27;6.10;;;13.90;99.90;;;;;;4115542;28;20236;-90
2021/09/28 06:54:46;;;;;;;15.37;6.13;;;13.50;99.90;;;;;;4115234;28;20218;-90
2021/09/28 06:56:48;;;;;;;10.57;6.07;;;13.90;99.90;;;;;;4111536;28;20770;-89
2021/09/28 06:58:52;;;;;;;7.83;5.73;;;14.20;99.90;;;;;;4105734;28;20206;-90
2021/09/28 07:00:54;;;;;;;10.13;5.50;;;13.90;99.90;;;;;;4109628;28;20628;-89
2021/09/28 07:02:57;;;;;;;9.83;5.70;;;13.90;99.90;;;;;;4118636;28;20228;-90
2021/09/28 07:04:59;;;;;;;8.80;5.17;;;13.90;99.90;;;;;;4102429;28;20273;-90
2021/09/28 07:07:01;;;;;;;6.83;4.80;;;13.90;99.90;;;;;;4102209;28;20230;-90
2021/09/28 07:09:04;;;;;;;7.80;4.47;;;14.10;99.90;;;;;;4104153;28;20244;-89
2021/09/28 07:11:06;;;;;;;8.17;5.20;;;14.20;99.90;;;;;;4118264;28;20217;-90
2021/09/28 07:13:08;;;;;;;7.73;3.90;;;14.00;99.90;;;;;;4115591;28;20264;-90
2021/09/28 07:15:11;;;;;;;11.10;4.33;;;14.00;99.90;;;;;;4110515;28;20217;-90
2021/09/28 07:17:13;;;;;;;8.17;4.17;;;14.00;99.90;;;;;;4117807;28;20239;-89
2021/09/28 07:19:16;;;;;;;10.73;4.63;;;14.10;99.90;;;;;;4117305;28;20222;-90
2021/09/28 07:21:18;;;;;;;6.97;4.67;;;14.50;99.90;;;;;;4117598;28;20652;-89
2021/09/28 07:23:22;;;;;;;8.43;4.70;;;14.00;99.90;;;;;;4111954;28;20374;-89
2021/09/28 07:25:24;;;;;;;11.53;5.30;;;14.00;99.90;;;;;;4102081;28;20224;-89
2021/09/28 07:27:26;;;;;;;12.93;5.07;;;14.00;99.90;;;;;;4101891;29;20233;-87
2021/09/28 07:29:28;;;;;;;10.90;5.50;;;13.90;99.90;;;;;;4107502;28;20292;-88
2021/09/28 07:31:30;;;;;;;9.10;5.00;;;13.90;99.90;;;;;;4118047;28;20250;-87
2021/09/28 07:33:31;;;;;;;10.03;5.20;;;13.90;99.90;;;;;;4118113;28;20661;-87
2021/09/28 07:35:35;;;;;;;9.63;5.83;;;13.80;99.90;;;;;;4118746;28;20739;-86
2021/09/28 07:37:37;;;;;;;13.93;6.03;;;13.70;99.90;;;;;;4119944;28;20240;-86
2021/09/28 07:39:38;;;;;;;11.13;6.13;;;13.70;99.90;;;;;;4121869;28;20223;-88
2021/09/28 07:41:40;;;;;;;13.50;6.20;;;13.70;99.90;;;;;;4114104;28;20666;-87
2021/09/28 07:43:42;;;;;;;11.43;6.43;;;13.60;99.90;;;;;;4110733;29;20217;-88
2021/09/28 07:45:44;;;;;;;10.33;6.80;;;13.70;99.90;;;;;;4110926;28;20764;-87
2021/09/28 07:47:46;;;;;;;11.37;6.70;;;13.80;99.90;;;;;;4112411;28;20236;-88
2021/09/28 07:49:48;;;;;;;14.60;7.27;;;13.70;99.90;;;;;;4122593;28;20280;-88
2021/09/28 07:51:51;;;;;;;13.17;7.00;;;14.00;99.90;;;;;;4113498;29;20248;-88
2021/09/28 07:53:53;;;;;;;10.80;7.00;;;13.80;99.90;;;;;;4113146;29;20582;-90
2021/09/28 07:55:55;;;;;;;14.63;6.87;;;13.70;99.90;;;;;;4128710;28;20236;-88
2021/09/28 07:57:57;;;;;;;18.43;7.60;;;13.70;99.90;;;;;;4128569;28;20211;-90
2021/09/28 07:59:58;;;;;;;14.87;7.50;;;13.70;99.90;;;;;;4129106;28;20216;-88
2021/09/28 08:02:00;;;;;;;16.60;7.50;;;13.70;99.90;;;;;;4130769;28;20227;-88
2021/09/28 08:04:02;;;;;;;13.03;6.70;;;14.00;99.90;;;;;;4133325;28;20231;-91
2021/09/28 08:06:04;;;;;;;11.70;6.87;;;13.70;99.90;;;;;;4132378;28;20236;-89
2021/09/28 08:08:08;;;;;;;12.63;6.53;;;13.70;99.90;;;;;;4131062;28;20300;-89
2021/09/28 08:10:12;;;;;;;9.63;6.33;;;13.80;99.90;;;;;;4128215;28;20232;-89
2021/09/28 08:12:14;;;;;;;13.13;6.83;;;13.80;99.90;;;;;;4127901;28;20477;-89
2021/09/28 08:14:15;;;;;;;11.03;6.57;;;13.80;99.90;;;;;;4119463;28;20264;-89
2021/09/28 08:16:17;;;;;;;14.83;7.83;;;14.20;99.90;;;;;;4121228;28;20236;-90
2021/09/28 08:18:19;;;;;;;10.00;7.07;;;14.20;99.90;;;;;;4112791;28;20209;-88
2021/09/28 08:20:22;;;;;;;13.03;8.43;;;13.90;99.90;;;;;;4113869;28;20222;-88
2021/09/28 08:22:24;;;;;;;15.40;8.20;;;13.90;99.90;;;;;;4110290;29;20250;-89
2021/09/28 08:24:29;;;;;;;13.80;8.43;;;13.90;99.90;;;;;;4116870;28;20249;-88
2021/09/28 08:29:10;;;;;;;14.03;8.70;;;13.90;99.90;;;;;;4130924;28;20272;-89
2021/09/28 08:31:13;;;;;;;14.00;9.57;;;14.40;99.90;;;;;;4132510;28;20197;-89
2021/09/28 08:33:14;;;;;;;14.67;9.80;;;13.80;99.90;;;;;;4132856;28;20221;-88
2021/09/28 08:35:16;;;;;;;16.90;10.60;;;14.20;99.90;;;;;;4132283;28;20294;-89
2021/09/28 08:37:18;;;;;;;18.17;10.27;;;14.00;99.90;;;;;;4132003;28;20218;-89
2021/09/28 08:39:20;;;;;;;14.80;9.77;;;14.30;99.90;;;;;;4132553;28;20225;-89
2021/09/28 08:41:23;;;;;;;16.00;11.73;;;14.10;99.90;;;;;;4131645;28;20217;-88
2021/09/28 08:43:26;;;;;;;19.77;12.07;;;14.20;99.90;;;;;;4126214;28;20218;-87
2021/09/28 08:45:28;;;;;;;23.73;12.03;;;14.10;99.90;;;;;;4120312;28;20206;-87
2021/09/28 08:47:40;;;;;;;19.47;12.17;;;14.40;99.90;;;;;;4131823;28;20232;-88
2021/09/28 08:49:42;;;;;;;18.13;11.80;;;14.20;99.90;;;;;;4130735;28;20208;-87
2021/09/28 08:51:44;;;;;;;20.23;12.20;;;15.00;99.90;;;;;;4123052;28;20226;-88
2021/09/28 08:53:48;;;;;;;20.43;12.07;;;14.50;99.90;;;;;;4126784;28;20300;-87
2021/09/28 08:55:50;;;;;;;17.17;12.70;;;14.40;99.90;;;;;;4118838;28;20252;-87
2021/09/28 08:58:12;;;;;;;22.00;13.77;;;14.40;99.90;;;;;;4114975;28;20269;-86
2021/09/28 09:00:26;;;;;;;23.13;13.60;;;14.40;99.90;;;;;;4105120;28;20281;-86
2021/09/28 09:02:40;;;;;;;23.27;14.10;;;14.30;99.90;;;;;;4111641;28;20228;-86
2021/09/28 09:04:44;;;;;;;17.23;12.27;;;15.10;99.90;;;;;;4117075;28;20220;-86
2021/09/28 09:06:46;;;;;;;20.73;13.37;;;14.40;99.90;;;;;;4116849;28;20318;-87
2021/09/28 09:09:00;;;;;;;19.70;12.40;;;14.40;99.90;;;;;;4106645;28;20651;-86
2021/09/28 09:11:05;;;;;;;19.07;13.10;;;14.40;99.90;;;;;;4116441;28;20250;-86
2021/09/28 09:13:08;;;;;;;21.13;14.00;;;14.50;99.90;;;;;;4116455;28;20205;-86
2021/09/28 09:15:25;;;;;;;23.60;12.10;;;15.00;99.90;;;;;;4115987;28;20213;-86
2021/09/28 09:17:27;;;;;;;16.60;11.00;;;14.50;99.90;;;;;;4109675;28;20231;-87
2021/09/28 09:19:30;;;;;;;16.00;10.63;;;14.50;99.90;;;;;;4100111;28;20721;-87
2021/09/28 09:21:43;;;;;;;15.77;10.60;;;14.50;99.90;;;;;;4100153;29;20269;-87
2021/09/28 09:23:51;;;;;;;15.40;10.17;;;14.50;99.90;;;;;;4105355;28;20263;-87
2021/09/28 09:26:03;;;;;;;17.80;11.07;;;14.60;99.90;;;;;;4103954;28;20577;-87
2021/09/28 09:28:18;;;;;;;19.40;11.57;;;14.50;99.90;;;;;;4110096;28;20239;-87
2021/09/28 09:30:22;;;;;;;13.57;9.87;;;14.60;99.90;;;;;;4111406;28;20219;-87
2021/09/28 09:32:24;;;;;;;13.70;9.67;;;14.60;99.90;;;;;;4110766;28;20203;-87
2021/09/28 09:34:27;;;;;;;13.47;10.20;;;14.60;99.90;;;;;;4111349;28;20212;-88
2021/09/28 09:36:28;;;;;;;13.97;9.43;;;14.70;99.90;;;;;;4108771;28;20242;-88
2021/09/28 09:38:30;;;;;;;14.13;9.10;;;14.80;99.90;;;;;;4107013;28;20220;-87
2021/09/28 09:40:34;;;;;;;19.50;9.73;;;14.90;99.90;;;;;;4110980;28;20281;-87
2021/09/28 09:42:52;;;;;;;16.07;9.07;;;14.90;99.90;;;;;;4105021;28;20264;-85
2021/09/28 09:44:55;;;;;;;14.33;9.33;;;14.90;99.90;;;;;;4118258;28;20213;-85
2021/09/28 09:46:59;;;;;;;14.17;8.63;;;15.00;99.90;;;;;;4119258;28;20295;-84
2021/09/28 09:49:06;;;;;;;12.73;9.33;;;15.10;99.90;;;;;;4121104;28;20228;-85
2021/09/28 09:51:09;;;;;;;12.97;8.53;;;15.20;99.90;;;;;;4119181;28;20214;-86
2021/09/28 09:53:11;;;;;;;14.40;9.53;;;15.30;99.90;;;;;;4117737;28;20736;-86
2021/09/28 09:55:25;;;;;;;14.90;9.53;;;15.30;99.90;;;;;;4116756;28;20240;-85
2021/09/28 09:57:26;;;;;;;15.00;9.93;;;15.40;99.90;;;;;;4121125;28;20205;-86
2021/09/28 09:59:28;;;;;;;14.93;9.87;;;15.40;99.90;;;;;;4116059;28;20222;-85
2021/09/28 10:01:35;;;;;;;15.67;9.57;;;15.40;99.90;;;;;;4114832;28;20254;-86
2021/09/28 10:03:38;;;;;;;11.73;8.57;;;15.30;99.90;;;;;;4113010;28;20204;-87
2021/09/28 10:05:40;;;;;;;19.23;10.17;;;15.40;99.90;;;;;;4111472;28;20311;-87
2021/09/28 10:07:42;;;;;;;13.60;9.53;;;15.40;99.90;;;;;;4111376;28;20763;-86
2021/09/28 10:09:47;;;;;;;10.50;9.03;;;15.50;99.90;;;;;;4110468;28;20239;-87
2021/09/28 10:11:53;;;;;;;14.57;9.43;;;15.50;99.90;;;;;;4114722;28;20232;-85
2021/09/28 10:13:57;;;;;;;13.80;10.00;;;15.50;99.90;;;;;;4111080;28;20676;-86
2021/09/28 10:16:34;;;;;;;14.53;10.67;;;15.60;99.90;;;;;;4114562;28;20253;-85
2021/09/28 10:18:40;;;;;;;13.60;9.83;;;15.70;99.90;;;;;;4109786;28;20644;-84
2021/09/28 10:20:46;;;;;;;13.77;9.97;;;15.80;99.90;;;;;;4116061;28;20209;-86
2021/09/28 10:22:50;;;;;;;13.27;9.27;;;15.90;99.90;;;;;;4114907;28;20241;-86
2021/09/28 10:24:51;;;;;;;13.37;9.03;;;15.90;99.90;;;;;;4113346;28;20210;-87
2021/09/28 10:27:28;;;;;;;11.23;8.70;;;15.90;99.90;;;;;;4108038;28;20728;-87
2021/09/28 10:29:40;;;;;;;12.23;8.90;;;15.90;99.90;;;;;;4106913;28;20319;-86
2021/09/28 10:31:42;;;;;;;10.50;7.87;;;16.00;99.90;;;;;;4116232;28;20215;-86
2021/09/28 10:33:55;;;;;;;9.07;7.57;;;16.00;99.90;;;;;;4112733;28;20304;-85
2021/09/28 10:35:59;;;;;;;13.20;7.60;;;16.10;99.90;;;;;;4112106;28;20249;-88